Time;durP1;ratioP1;P1;durP2;ratioP2;P2;SDS_P1;SDS_P2;PMS_P1;PMS_P2;Temp;Humidity;BMP_temperature;BMP_pressure;BME280_temperature;BME280_humidity;BME280_pressure;Samples;Min_cycle;Max_cycle;Signal;HPM_P1;HPM_P2
2022/03/30 00:00:39;;;;;;;8.95;6.00;;;12.40;1.00;;;;;;5014174;28;20523;-51
2022/03/30 00:03:06;;;;;;;10.63;5.32;;;12.50;1.00;;;;;;5012816;28;20436;-55
2022/03/30 00:05:33;;;;;;;8.07;5.53;;;12.50;1.00;;;;;;5013486;28;20467;-54
2022/03/30 00:08:00;;;;;;;7.53;5.30;;;12.50;1.00;;;;;;5012866;28;20795;-54
2022/03/30 00:10:27;;;;;;;7.70;5.57;;;12.50;1.00;;;;;;5013942;28;20438;-52
2022/03/30 00:12:54;;;;;;;7.53;4.65;;;12.60;1.00;;;;;;5012757;28;20535;-52
2022/03/30 00:15:23;;;;;;;11.02;6.35;;;12.70;1.00;;;;;;5014456;28;20425;-52
2022/03/30 00:17:50;;;;;;;10.90;5.90;;;12.60;1.00;;;;;;5014710;28;20457;-54
2022/03/30 00:20:17;;;;;;;10.18;6.10;;;12.60;1.00;;;;;;5014892;28;20421;-52
2022/03/30 00:22:44;;;;;;;8.70;6.43;;;12.60;1.00;;;;;;5014412;28;20523;-54
2022/03/30 00:25:12;;;;;;;7.95;5.32;;;12.60;1.00;;;;;;5017522;28;20440;-53
2022/03/30 00:27:43;;;;;;;11.00;5.67;;;12.60;1.00;;;;;;5018857;28;20851;-53
2022/03/30 00:30:12;;;;;;;7.82;5.00;;;12.60;1.00;;;;;;5018069;28;20428;-53
2022/03/30 00:32:42;;;;;;;11.75;5.70;;;12.60;1.00;;;;;;5018414;28;20478;-52
2022/03/30 00:35:09;;;;;;;7.72;5.03;;;12.50;1.00;;;;;;5018929;28;20463;-55
2022/03/30 00:37:37;;;;;;;6.07;5.00;;;12.50;1.00;;;;;;5017611;28;20789;-52
2022/03/30 00:40:05;;;;;;;8.80;5.30;;;12.40;1.00;;;;;;5019029;28;20514;-53
2022/03/30 00:42:32;;;;;;;6.40;4.13;;;12.40;1.00;;;;;;5017627;28;20883;-53
2022/03/30 00:45:08;;;;;;;9.77;5.72;;;12.40;1.00;;;;;;5018611;28;20511;-53
2022/03/30 00:47:36;;;;;;;8.95;5.32;;;12.30;1.00;;;;;;5017868;28;20432;-58
2022/03/30 00:50:05;;;;;;;9.98;5.28;;;12.30;1.00;;;;;;5018827;28;20494;-53
2022/03/30 00:52:32;;;;;;;5.97;4.97;;;12.40;1.00;;;;;;5017683;28;20951;-53
2022/03/30 00:54:59;;;;;;;8.32;4.95;;;12.40;1.00;;;;;;5017503;28;20459;-54
2022/03/30 00:57:27;;;;;;;8.63;5.30;;;12.40;1.00;;;;;;5017556;28;20796;-53
2022/03/30 00:59:54;;;;;;;8.30;5.13;;;12.30;1.00;;;;;;5018640;28;20471;-55
2022/03/30 01:02:23;;;;;;;8.80;5.35;;;12.40;1.00;;;;;;5015854;28;20793;-54
2022/03/30 01:04:50;;;;;;;8.60;5.60;;;12.30;1.00;;;;;;5016421;28;20440;-53
2022/03/30 01:07:20;;;;;;;7.33;5.00;;;12.40;1.00;;;;;;5015986;28;20928;-49
2022/03/30 01:09:47;;;;;;;10.07;5.60;;;12.40;1.00;;;;;;5017139;28;20795;-54
2022/03/30 01:12:14;;;;;;;10.85;6.40;;;12.40;1.00;;;;;;5017038;28;20463;-54
2022/03/30 01:14:41;;;;;;;8.30;5.65;;;12.40;1.00;;;;;;5017350;28;20510;-49
2022/03/30 01:17:08;;;;;;;9.63;5.70;;;12.40;1.00;;;;;;5017312;28;20527;-51
2022/03/30 01:19:35;;;;;;;8.40;5.00;;;12.30;1.00;;;;;;5018138;28;20479;-50
2022/03/30 01:22:06;;;;;;;9.63;5.63;;;12.30;1.00;;;;;;5016539;28;20720;-53
2022/03/30 01:24:32;;;;;;;9.38;6.10;;;12.20;1.00;;;;;;5017006;28;20459;-52
2022/03/30 01:26:59;;;;;;;7.93;5.55;;;12.20;1.00;;;;;;5016097;28;20531;-51
2022/03/30 01:32:28;;;;;;;11.18;5.82;;;12.10;1.00;;;;;;5015412;28;20522;-51
2022/03/30 01:34:57;;;;;;;11.23;6.80;;;12.00;1.00;;;;;;5017464;28;20439;-53
2022/03/30 01:37:28;;;;;;;11.73;6.82;;;12.00;1.00;;;;;;5016041;28;20428;-53
2022/03/30 01:39:55;;;;;;;7.90;5.60;;;12.00;1.00;;;;;;5018081;28;20433;-52
2022/03/30 01:42:22;;;;;;;7.43;5.40;;;12.10;1.00;;;;;;5016636;28;20463;-52
2022/03/30 01:44:50;;;;;;;10.20;5.25;;;12.20;1.00;;;;;;5017743;28;20428;-54
2022/03/30 01:47:17;;;;;;;11.23;6.57;;;12.20;1.00;;;;;;5016593;28;20428;-53
2022/03/30 01:49:45;;;;;;;8.07;5.13;;;12.30;1.00;;;;;;5017605;28;20421;-55
2022/03/30 01:52:14;;;;;;;9.27;5.72;;;12.30;1.00;;;;;;5016601;28;20534;-55
2022/03/30 01:54:42;;;;;;;9.02;5.50;;;12.30;1.00;;;;;;5017035;28;20779;-53
2022/03/30 01:57:12;;;;;;;11.98;6.20;;;12.30;1.00;;;;;;5016242;28;20924;-55
2022/03/30 01:59:40;;;;;;;6.68;5.68;;;12.40;1.00;;;;;;5015818;28;20416;-53
2022/03/30 02:02:07;;;;;;;7.97;5.20;;;12.40;1.00;;;;;;5014077;28;20464;-56
2022/03/30 02:04:35;;;;;;;13.27;6.40;;;12.40;1.00;;;;;;5015916;28;20466;-51
2022/03/30 02:07:02;;;;;;;9.73;5.70;;;12.40;1.00;;;;;;5015957;28;20440;-54
2022/03/30 02:09:29;;;;;;;10.25;5.65;;;12.50;1.00;;;;;;5016149;28;20799;-55
2022/03/30 02:11:58;;;;;;;11.70;7.10;;;12.50;1.00;;;;;;5015916;28;20501;-49
2022/03/30 02:14:24;;;;;;;8.38;5.53;;;12.40;1.00;;;;;;5016840;28;20443;-53
2022/03/30 02:16:51;;;;;;;7.90;5.60;;;12.40;1.00;;;;;;5015708;28;20807;-53
2022/03/30 02:19:18;;;;;;;9.23;6.13;;;12.40;1.00;;;;;;5016253;28;20508;-54
2022/03/30 02:21:45;;;;;;;8.20;6.60;;;12.50;1.00;;;;;;5014281;28;20435;-54
2022/03/30 02:24:12;;;;;;;8.38;5.90;;;12.50;1.00;;;;;;5015411;28;20875;-54
2022/03/30 02:26:39;;;;;;;9.32;6.15;;;12.50;1.00;;;;;;5014115;28;20468;-50
2022/03/30 02:29:07;;;;;;;7.70;5.50;;;12.40;1.00;;;;;;5015254;28;20516;-55
2022/03/30 02:31:35;;;;;;;10.35;6.70;;;12.40;1.00;;;;;;5014173;28;20539;-50
2022/03/30 02:34:01;;;;;;;8.80;6.40;;;12.30;1.00;;;;;;5015233;28;20427;-52
2022/03/30 02:36:28;;;;;;;12.32;5.95;;;12.30;1.00;;;;;;5016075;28;20468;-52
2022/03/30 02:38:56;;;;;;;8.90;6.88;;;12.20;1.00;;;;;;5016979;28;20507;-54
2022/03/30 02:41:23;;;;;;;7.70;5.20;;;12.20;1.00;;;;;;5015432;28;20433;-54
2022/03/30 02:43:50;;;;;;;11.43;6.18;;;12.20;1.00;;;;;;5015508;28;20431;-54
2022/03/30 02:46:18;;;;;;;9.15;6.45;;;12.20;1.00;;;;;;5016194;28;20464;-54
2022/03/30 02:48:45;;;;;;;8.02;5.85;;;12.20;1.00;;;;;;5016434;28;20448;-52
2022/03/30 02:51:12;;;;;;;7.90;5.55;;;12.20;1.00;;;;;;5014119;28;20903;-52
2022/03/30 02:53:38;;;;;;;9.18;6.10;;;12.20;1.00;;;;;;5014916;28;20528;-55
2022/03/30 02:56:06;;;;;;;9.83;5.77;;;12.10;1.00;;;;;;5014084;28;20438;-54
2022/03/30 02:58:33;;;;;;;8.75;5.88;;;12.10;1.00;;;;;;5016057;28;20496;-52
2022/03/30 03:01:00;;;;;;;8.20;5.40;;;12.00;1.00;;;;;;5014943;28;20873;-52
2022/03/30 03:03:28;;;;;;;10.52;6.25;;;12.00;1.00;;;;;;5015588;28;20777;-50
2022/03/30 03:05:55;;;;;;;8.77;5.72;;;12.00;1.00;;;;;;5014341;28;20587;-54
2022/03/30 03:08:22;;;;;;;10.20;5.90;;;12.00;1.00;;;;;;5014975;28;20507;-49
2022/03/30 03:10:51;;;;;;;12.20;6.70;;;12.10;1.00;;;;;;5015317;28;20507;-53
2022/03/30 03:13:18;;;;;;;7.80;6.22;;;12.10;1.00;;;;;;5014993;28;20432;-53
2022/03/30 03:15:46;;;;;;;12.17;6.50;;;12.00;1.00;;;;;;5014143;28;20459;-53
2022/03/30 03:18:14;;;;;;;8.43;5.03;;;12.00;1.00;;;;;;5015982;28;20427;-55
2022/03/30 03:20:44;;;;;;;10.15;6.32;;;12.00;1.00;;;;;;5016138;28;20503;-54
2022/03/30 03:23:12;;;;;;;10.25;5.88;;;11.90;1.00;;;;;;5014880;28;20495;-52
2022/03/30 03:25:40;;;;;;;10.90;5.33;;;12.00;1.00;;;;;;5016152;28;20511;-53
2022/03/30 03:28:08;;;;;;;8.10;5.60;;;12.00;1.00;;;;;;5013237;28;20849;-53
2022/03/30 03:30:36;;;;;;;9.65;6.30;;;12.00;1.00;;;;;;5013416;28;20523;-54
2022/03/30 03:33:02;;;;;;;10.50;6.05;;;12.00;1.00;;;;;;5013837;28;20741;-54
2022/03/30 03:35:30;;;;;;;7.55;5.30;;;12.00;1.00;;;;;;5014275;28;20610;-53
2022/03/30 03:37:58;;;;;;;10.37;6.20;;;12.00;1.00;;;;;;5013326;28;20580;-54
2022/03/30 03:40:27;;;;;;;9.70;5.90;;;11.90;1.00;;;;;;5014659;28;20479;-52
2022/03/30 03:42:54;;;;;;;9.20;5.13;;;11.90;1.00;;;;;;5013997;28;20840;-54
2022/03/30 03:45:20;;;;;;;7.15;5.38;;;11.90;1.00;;;;;;5015393;28;20511;-53
2022/03/30 03:47:48;;;;;;;12.18;6.00;;;12.00;1.00;;;;;;5015548;28;20432;-53
2022/03/30 03:50:15;;;;;;;11.65;6.30;;;12.00;1.00;;;;;;5015406;28;20431;-48
2022/03/30 03:52:42;;;;;;;10.20;5.95;;;12.00;1.00;;;;;;5013979;28;20446;-54
2022/03/30 03:55:11;;;;;;;7.00;4.70;;;12.00;1.00;;;;;;5014377;28;21506;-54
2022/03/30 03:57:39;;;;;;;10.67;5.83;;;12.10;1.00;;;;;;5013172;28;20527;-53
2022/03/30 04:00:07;;;;;;;8.30;5.70;;;12.00;1.00;;;;;;5011122;28;20456;-51
2022/03/30 04:02:34;;;;;;;8.88;5.32;;;12.10;1.00;;;;;;5010940;28;20927;-50
2022/03/30 04:05:01;;;;;;;7.37;5.30;;;12.10;1.00;;;;;;5012236;28;20452;-54
2022/03/30 04:07:28;;;;;;;8.80;5.50;;;12.10;1.00;;;;;;5012555;28;20736;-55
2022/03/30 04:09:55;;;;;;;10.07;5.07;;;12.10;1.00;;;;;;5013102;28;20457;-55
2022/03/30 04:12:23;;;;;;;9.10;5.07;;;12.20;1.00;;;;;;5012706;28;20434;-54
2022/03/30 04:14:50;;;;;;;9.43;5.80;;;12.10;1.00;;;;;;5015187;28;20470;-53
2022/03/30 04:17:18;;;;;;;8.35;4.65;;;12.10;1.00;;;;;;5014055;28;20439;-53
2022/03/30 04:19:45;;;;;;;8.45;5.25;;;12.20;1.00;;;;;;5013503;28;20430;-54
2022/03/30 04:22:12;;;;;;;10.07;5.83;;;12.20;1.00;;;;;;5013338;28;20844;-53
2022/03/30 04:24:38;;;;;;;8.05;4.82;;;12.20;1.00;;;;;;5013500;28;20596;-50
2022/03/30 04:27:05;;;;;;;8.70;5.03;;;12.10;1.00;;;;;;5012960;28;20456;-54
2022/03/30 04:29:34;;;;;;;7.57;5.00;;;12.10;1.00;;;;;;5014140;28;20506;-54
2022/03/30 04:32:00;;;;;;;8.05;5.10;;;12.00;1.00;;;;;;5012620;28;20542;-54
2022/03/30 04:34:27;;;;;;;6.95;5.25;;;12.10;1.00;;;;;;5012846;28;20836;-51
2022/03/30 04:36:56;;;;;;;7.80;5.22;;;12.00;1.00;;;;;;5010888;28;20812;-52
2022/03/30 04:39:22;;;;;;;8.00;4.95;;;11.90;99.90;;;;;;5011182;28;20429;-53
2022/03/30 04:41:49;;;;;;;8.63;4.60;;;12.00;99.90;;;;;;5011884;28;20531;-54
2022/03/30 04:44:18;;;;;;;5.73;2.83;;;12.00;1.00;;;;;;5013003;28;20467;-54
2022/03/30 04:46:46;;;;;;;5.80;3.75;;;12.00;21.80;;;;;;5012809;28;20436;-54
2022/03/30 04:49:13;;;;;;;8.10;3.80;;;11.90;1.00;;;;;;5014553;28;20492;-56
2022/03/30 04:51:40;;;;;;;8.15;3.50;;;11.90;1.00;;;;;;5013567;28;20463;-54
2022/03/30 04:54:07;;;;;;;10.55;4.43;;;11.90;1.00;;;;;;5014229;28;20774;-49
2022/03/30 04:56:34;;;;;;;10.55;3.92;;;11.80;1.00;;;;;;5013553;28;20523;-52
2022/03/30 04:59:01;;;;;;;6.13;4.03;;;11.70;1.00;;;;;;5014338;28;20460;-48
2022/03/30 05:01:28;;;;;;;12.77;4.00;;;11.60;99.90;;;;;;5012686;28;20527;-51
2022/03/30 05:03:56;;;;;;;9.32;4.57;;;11.60;99.90;;;;;;5013090;28;20476;-53
2022/03/30 05:06:23;;;;;;;8.65;4.20;;;11.60;99.90;;;;;;5023999;28;20513;-48
2022/03/30 05:08:50;;;;;;;7.72;3.88;;;11.50;1.00;;;;;;5033279;28;20530;-51
2022/03/30 05:11:17;;;;;;;9.63;4.38;;;11.40;1.00;;;;;;5035249;28;20478;-47
2022/03/30 05:13:44;;;;;;;8.25;4.15;;;11.20;1.00;;;;;;5036069;28;20521;-47
2022/03/30 05:16:12;;;;;;;11.85;5.15;;;11.00;1.00;;;;;;5036393;28;20588;-46
2022/03/30 05:18:38;;;;;;;8.25;4.35;;;10.80;1.00;;;;;;5034307;28;20482;-50
2022/03/30 05:21:07;;;;;;;5.82;3.95;;;10.70;11.30;;;;;;5035913;28;20465;-50
2022/03/30 05:23:36;;;;;;;14.25;5.22;;;10.60;43.40;;;;;;5033227;28;20470;-52
2022/03/30 05:26:03;;;;;;;9.50;5.18;;;10.50;61.10;;;;;;5035445;28;20540;-52
2022/03/30 05:28:30;;;;;;;8.37;5.40;;;10.40;91.40;;;;;;5035023;28;20438;-51
2022/03/30 05:30:57;;;;;;;10.38;5.68;;;10.30;98.20;;;;;;5034459;28;20454;-50
2022/03/30 05:33:24;;;;;;;9.07;4.50;;;10.30;99.90;;;;;;5034296;28;20439;-50
2022/03/30 05:35:51;;;;;;;12.68;5.15;;;10.30;99.90;;;;;;5034860;28;20509;-49
2022/03/30 05:38:19;;;;;;;10.38;5.35;;;10.20;99.90;;;;;;5033222;28;20518;-48
2022/03/30 05:40:46;;;;;;;9.10;5.45;;;10.20;99.90;;;;;;5034774;28;20511;-52
2022/03/30 05:43:13;;;;;;;13.05;6.13;;;10.20;99.90;;;;;;5032762;28;20427;-53
2022/03/30 05:45:40;;;;;;;12.10;4.70;;;10.20;99.90;;;;;;5032342;28;20427;-51
2022/03/30 05:48:07;;;;;;;8.95;4.72;;;10.20;99.90;;;;;;5032613;28;20518;-51
2022/03/30 05:50:34;;;;;;;12.63;5.18;;;10.20;99.90;;;;;;5032047;28;20415;-48
2022/03/30 05:53:01;;;;;;;9.25;4.75;;;10.10;99.90;;;;;;5033067;28;20874;-48
2022/03/30 05:55:31;;;;;;;9.68;4.70;;;10.10;99.90;;;;;;5032367;28;20936;-50
2022/03/30 05:57:58;;;;;;;11.27;4.78;;;10.30;99.90;;;;;;5034886;28;20739;-53
2022/03/30 06:00:25;;;;;;;7.57;4.45;;;10.40;99.90;;;;;;5033063;28;20454;-53
2022/03/30 06:02:52;;;;;;;10.75;4.47;;;10.50;99.90;;;;;;5032562;28;20423;-52
2022/03/30 06:05:19;;;;;;;11.15;5.30;;;10.50;99.90;;;;;;5036291;28;20423;-54
2022/03/30 06:07:45;;;;;;;10.40;5.50;;;10.40;99.90;;;;;;5031880;28;20533;-54
2022/03/30 06:10:12;;;;;;;10.88;6.63;;;10.20;99.90;;;;;;5034251;28;20426;-55
2022/03/30 06:12:41;;;;;;;9.57;5.80;;;10.20;99.90;;;;;;5032930;28;20753;-53
2022/03/30 06:15:09;;;;;;;9.93;4.70;;;10.20;99.90;;;;;;5031291;28;20481;-55
2022/03/30 06:17:36;;;;;;;9.07;5.43;;;10.20;99.90;;;;;;5031838;28;20536;-54
2022/03/30 06:20:05;;;;;;;12.48;6.20;;;10.20;99.90;;;;;;5031143;28;20470;-51
2022/03/30 06:22:32;;;;;;;10.73;5.47;;;10.10;99.90;;;;;;5032720;28;20426;-58
2022/03/30 06:25:00;;;;;;;9.23;5.80;;;10.00;99.90;;;;;;5032614;28;20443;-54
2022/03/30 06:27:27;;;;;;;10.07;5.82;;;10.00;99.90;;;;;;5032874;28;20794;-53
2022/03/30 06:29:55;;;;;;;10.77;4.93;;;10.00;99.90;;;;;;5033160;28;20454;-56
2022/03/30 06:32:22;;;;;;;9.45;4.60;;;10.00;99.90;;;;;;5033257;28;20529;-56
2022/03/30 06:34:49;;;;;;;9.60;5.40;;;10.00;99.90;;;;;;5034125;28;20910;-54
2022/03/30 06:37:16;;;;;;;13.05;5.60;;;10.10;99.90;;;;;;5032718;28;20418;-56
2022/03/30 06:39:43;;;;;;;8.57;4.82;;;10.20;99.90;;;;;;5031313;28;20525;-56
2022/03/30 06:42:10;;;;;;;9.13;5.15;;;10.20;99.90;;;;;;5032928;28;21061;-54
2022/03/30 06:44:38;;;;;;;10.73;6.07;;;10.30;99.90;;;;;;5031292;28;20445;-56
2022/03/30 06:47:07;;;;;;;10.85;5.40;;;10.20;99.90;;;;;;5027923;28;20423;-54
2022/03/30 06:49:34;;;;;;;8.75;5.20;;;10.20;99.90;;;;;;5031385;28;20587;-54
2022/03/30 06:52:01;;;;;;;12.13;5.28;;;10.20;99.90;;;;;;5032131;28;20437;-55
2022/03/30 06:54:28;;;;;;;9.38;5.43;;;10.20;99.90;;;;;;5031591;28;20439;-54
2022/03/30 06:56:55;;;;;;;11.93;5.30;;;10.10;99.90;;;;;;5033175;28;20463;-54
2022/03/30 06:59:21;;;;;;;13.23;6.28;;;10.20;99.90;;;;;;5032944;28;20838;-51
2022/03/30 07:01:49;;;;;;;11.00;5.63;;;10.20;99.90;;;;;;5032028;28;20554;-60
2022/03/30 07:04:17;;;;;;;11.20;5.20;;;10.20;99.90;;;;;;5033364;28;20419;-59
2022/03/30 07:12:19;;;;;;;11.10;4.93;;;10.30;99.90;;;;;;5033569;28;20465;-58
2022/03/30 07:14:46;;;;;;;8.38;5.20;;;10.30;99.90;;;;;;5032481;28;20806;-58
2022/03/30 07:17:13;;;;;;;9.20;4.30;;;10.30;99.90;;;;;;5032036;28;20433;-57
2022/03/30 07:22:09;;;;;;;11.02;5.30;;;10.30;99.90;;;;;;5058005;22;20709;-59
2022/03/30 07:24:36;;;;;;;12.45;5.85;;;10.20;99.90;;;;;;5050793;28;20725;-54
2022/03/30 07:27:03;;;;;;;10.73;5.68;;;10.20;99.90;;;;;;5049129;28;20756;-52
2022/03/30 07:29:30;;;;;;;11.57;6.07;;;10.30;99.90;;;;;;5052102;28;20429;-53
2022/03/30 07:31:57;;;;;;;11.98;5.57;;;10.30;99.90;;;;;;5052984;28;20433;-52
2022/03/30 07:34:24;;;;;;;10.65;5.97;;;10.30;99.90;;;;;;5053196;28;20429;-54
2022/03/30 07:36:52;;;;;;;10.30;6.63;;;10.20;99.90;;;;;;5052843;28;20464;-56
2022/03/30 07:39:19;;;;;;;11.45;6.32;;;10.30;99.90;;;;;;5052106;28;20508;-53
2022/03/30 07:41:46;;;;;;;8.80;5.32;;;10.30;99.90;;;;;;5050607;28;20537;-56
2022/03/30 07:44:13;;;;;;;11.23;6.07;;;10.30;99.90;;;;;;5052133;28;20504;-52
2022/03/30 07:46:40;;;;;;;13.63;6.30;;;10.30;99.90;;;;;;5051788;28;20547;-54
2022/03/30 07:49:07;;;;;;;11.52;5.72;;;10.30;99.90;;;;;;5052412;28;20429;-54
2022/03/30 07:51:34;;;;;;;14.68;6.38;;;10.30;99.90;;;;;;5052967;28;20433;-56
2022/03/30 07:54:03;;;;;;;9.95;6.72;;;10.20;99.90;;;;;;5053048;28;20512;-55
2022/03/30 07:56:31;;;;;;;9.05;6.75;;;10.20;99.90;;;;;;5052874;28;20537;-54
2022/03/30 07:58:59;;;;;;;10.43;6.80;;;10.20;99.90;;;;;;5052423;28;20456;-54
2022/03/30 08:01:26;;;;;;;9.27;6.15;;;10.30;99.90;;;;;;5051551;28;20437;-52
2022/03/30 08:03:53;;;;;;;12.93;6.65;;;10.40;99.90;;;;;;5053086;28;20452;-53
2022/03/30 08:06:20;;;;;;;11.38;5.57;;;10.50;99.90;;;;;;5051713;28;20503;-53
2022/03/30 08:08:47;;;;;;;11.75;5.60;;;10.70;99.90;;;;;;5050312;28;20839;-51
2022/03/30 08:11:15;;;;;;;10.25;4.65;;;10.60;99.90;;;;;;5052394;28;20447;-55
2022/03/30 08:13:42;;;;;;;10.30;4.93;;;10.50;99.90;;;;;;5051582;28;20521;-50
2022/03/30 08:16:09;;;;;;;8.07;4.80;;;10.50;99.90;;;;;;5052008;28;20433;-55
2022/03/30 08:18:36;;;;;;;8.80;3.83;;;10.50;99.90;;;;;;5051156;28;21111;-52
2022/03/30 08:23:49;;;;;;;10.30;5.55;;;10.40;99.90;;;;;;5050108;28;20401;-50
2022/03/30 08:26:18;;;;;;;9.88;4.97;;;10.40;99.90;;;;;;5050301;28;20903;-55
2022/03/30 08:28:45;;;;;;;9.25;5.50;;;10.40;99.90;;;;;;5050647;28;20434;-53
2022/03/30 08:31:12;;;;;;;11.32;4.97;;;10.30;99.90;;;;;;5051853;28;20856;-54
2022/03/30 08:33:39;;;;;;;9.85;5.07;;;10.30;99.90;;;;;;5048937;28;20437;-57
2022/03/30 08:36:07;;;;;;;12.88;5.03;;;10.30;99.90;;;;;;5050308;28;20523;-52
2022/03/30 08:38:34;;;;;;;12.82;5.63;;;10.30;99.90;;;;;;5050994;28;20437;-55
2022/03/30 08:41:01;;;;;;;11.82;5.50;;;10.30;99.90;;;;;;5048350;28;20430;-53
2022/03/30 08:43:30;;;;;;;13.38;6.63;;;10.40;99.90;;;;;;5043331;28;20868;-56
2022/03/30 08:45:59;;;;;;;8.52;5.85;;;10.40;99.90;;;;;;5049545;28;20444;-54
2022/03/30 08:48:26;;;;;;;11.65;5.40;;;10.40;99.90;;;;;;5055209;28;20443;-56
2022/03/30 08:50:54;;;;;;;11.90;6.60;;;10.50;99.90;;;;;;5047896;28;20859;-54
2022/03/30 08:53:22;;;;;;;10.65;5.65;;;10.40;99.90;;;;;;5052943;28;20431;-54
2022/03/30 08:55:49;;;;;;;9.23;5.90;;;10.50;99.90;;;;;;5053197;28;20476;-53
2022/03/30 08:58:16;;;;;;;10.55;4.50;;;10.40;99.90;;;;;;5050695;28;20885;-50
2022/03/30 09:00:44;;;;;;;10.60;4.65;;;10.40;99.90;;;;;;5049816;28;20465;-53
2022/03/30 09:03:15;;;;;;;10.67;5.30;;;10.40;99.90;;;;;;5053151;28;20445;-53
2022/03/30 09:05:42;;;;;;;8.38;4.47;;;10.50;99.90;;;;;;5054759;28;20472;-55
2022/03/30 09:08:12;;;;;;;9.18;4.05;;;10.50;99.90;;;;;;5053054;28;20433;-55
2022/03/30 09:10:41;;;;;;;12.13;4.70;;;10.60;99.90;;;;;;5050484;28;20868;-50
2022/03/30 09:13:08;;;;;;;6.47;3.78;;;10.60;99.90;;;;;;5054068;28;20444;-49
2022/03/30 09:15:35;;;;;;;13.68;4.60;;;10.70;99.90;;;;;;5054042;28;20433;-50
2022/03/30 09:18:08;;;;;;;11.18;4.80;;;10.70;99.90;;;;;;5053462;28;20515;-53
2022/03/30 09:20:37;;;;;;;11.02;5.47;;;10.70;99.90;;;;;;5054656;28;20436;-53
2022/03/30 09:23:05;;;;;;;8.63;4.70;;;10.70;99.90;;;;;;5051015;28;20508;-54
2022/03/30 09:25:32;;;;;;;9.48;3.85;;;10.70;99.90;;;;;;5053124;28;20473;-54
2022/03/30 09:28:01;;;;;;;8.17;3.93;;;10.70;99.90;;;;;;5050016;28;20472;-50
2022/03/30 09:30:29;;;;;;;11.33;4.20;;;10.70;99.90;;;;;;5052828;28;20888;-54
2022/03/30 09:32:58;;;;;;;12.63;4.20;;;10.80;99.90;;;;;;5053715;28;20431;-52
2022/03/30 09:35:30;;;;;;;9.18;3.47;;;10.80;99.90;;;;;;5052102;28;20464;-53
2022/03/30 09:38:02;;;;;;;9.18;4.20;;;10.90;99.90;;;;;;5050753;28;20479;-54
2022/03/30 09:40:43;;;;;;;6.88;3.40;;;10.90;99.90;;;;;;5052434;28;20477;-52
2022/03/30 09:43:15;;;;;;;8.65;3.58;;;11.00;99.90;;;;;;5054453;28;20421;-50
2022/03/30 09:45:42;;;;;;;5.55;3.75;;;11.00;99.90;;;;;;5053532;28;20807;-51
2022/03/30 09:48:14;;;;;;;10.45;4.10;;;11.00;99.90;;;;;;5054563;28;20536;-52
2022/03/30 09:50:48;;;;;;;9.27;3.33;;;11.00;99.90;;;;;;5050475;28;20873;-48
2022/03/30 09:53:16;;;;;;;7.53;2.95;;;11.00;99.90;;;;;;5054200;28;20425;-54
2022/03/30 09:55:55;;;;;;;8.75;2.97;;;11.00;99.90;;;;;;5053560;28;20916;-54
2022/03/30 09:58:23;;;;;;;11.80;3.92;;;11.10;99.90;;;;;;5050850;28;20515;-51
2022/03/30 10:01:22;;;;;;;8.70;3.05;;;11.20;99.90;;;;;;5053062;28;20872;-59
2022/03/30 10:03:51;;;;;;;8.40;3.38;;;11.40;99.90;;;;;;5052984;28;20467;-50
2022/03/30 10:06:22;;;;;;;8.07;3.20;;;11.40;99.90;;;;;;5051919;28;20439;-51
2022/03/30 10:08:50;;;;;;;8.45;3.47;;;11.40;94.30;;;;;;5053526;28;20494;-53
2022/03/30 10:11:18;;;;;;;8.60;2.60;;;11.50;77.30;;;;;;5051949;28;20883;-51
2022/03/30 10:13:46;;;;;;;7.72;3.65;;;11.60;62.60;;;;;;5054338;28;20461;-51
2022/03/30 10:16:16;;;;;;;7.75;3.38;;;11.60;71.00;;;;;;5051282;28;20536;-48
2022/03/30 10:18:45;;;;;;;6.10;3.40;;;11.60;70.70;;;;;;5050402;28;20421;-55
2022/03/30 10:21:23;;;;;;;8.73;4.00;;;11.60;85.50;;;;;;5051335;28;20555;-52
2022/03/30 10:24:16;;;;;;;5.45;3.60;;;11.80;90.10;;;;;;5051509;28;20432;-52
2022/03/30 10:26:53;;;;;;;7.17;2.80;;;12.00;43.80;;;;;;5045880;28;20815;-53
2022/03/30 10:29:23;;;;;;;4.60;2.47;;;11.80;12.10;;;;;;5051273;28;20435;-52
2022/03/30 10:32:18;;;;;;;6.82;2.95;;;11.90;37.30;;;;;;5039016;28;20429;-52
2022/03/30 10:35:04;;;;;;;9.27;4.07;;;12.10;8.50;;;;;;4994836;28;20531;-51
2022/03/30 10:37:36;;;;;;;7.38;3.20;;;12.20;18.00;;;;;;5053292;28;21209;-50
2022/03/30 10:40:23;;;;;;;7.07;2.97;;;12.30;3.60;;;;;;5051992;28;20447;-50
2022/03/30 10:43:01;;;;;;;8.38;3.55;;;12.70;1.00;;;;;;5051827;28;20456;-49
2022/03/30 10:45:40;;;;;;;7.45;4.47;;;12.90;1.00;;;;;;5052584;28;20891;-49
2022/03/30 10:48:16;;;;;;;7.72;3.50;;;13.10;1.00;;;;;;5049399;28;20491;-53
2022/03/30 10:50:46;;;;;;;7.35;3.20;;;13.00;1.00;;;;;;5038466;28;20549;-53
2022/03/30 10:53:39;;;;;;;6.95;4.00;;;12.90;1.00;;;;;;5034721;28;20795;-53
2022/03/30 10:56:34;;;;;;;7.28;2.95;;;12.80;1.00;;;;;;5028731;28;20482;-52
2022/03/30 10:59:25;;;;;;;8.35;4.45;;;12.80;1.00;;;;;;5037112;28;20774;-50
2022/03/30 11:02:16;;;;;;;10.00;4.15;;;12.70;1.00;;;;;;5030312;28;20503;-52
2022/03/30 11:04:46;;;;;;;9.90;4.10;;;12.70;1.00;;;;;;5052546;28;20475;-53
2022/03/30 11:07:40;;;;;;;5.10;2.60;;;12.70;1.00;;;;;;5052424;28;20515;-52
2022/03/30 11:10:22;;;;;;;8.02;2.70;;;12.90;1.00;;;;;;5049629;28;20429;-53
2022/03/30 11:13:00;;;;;;;7.82;3.33;;;13.10;1.00;;;;;;5042887;28;20432;-53
2022/03/30 11:15:27;;;;;;;7.35;2.35;;;13.30;1.00;;;;;;5047396;28;20440;-51
2022/03/30 11:18:16;;;;;;;8.85;3.20;;;13.30;1.00;;;;;;5051781;28;20424;-55
2022/03/30 11:21:16;;;;;;;7.93;3.42;;;13.30;1.00;;;;;;5049782;28;20861;-54
2022/03/30 11:24:12;;;;;;;6.53;2.75;;;13.20;1.00;;;;;;5048740;28;20800;-57
2022/03/30 11:27:23;;;;;;;5.57;2.47;;;13.20;1.00;;;;;;5043911;28;20430;-55
2022/03/30 11:30:15;;;;;;;4.73;2.80;;;13.20;1.00;;;;;;5044911;28;20503;-55
2022/03/30 11:33:01;;;;;;;4.05;3.05;;;12.90;1.00;;;;;;5042116;28;20429;-57
2022/03/30 11:35:34;;;;;;;6.68;3.25;;;12.80;18.10;;;;;;5048273;28;20489;-55
2022/03/30 11:38:12;;;;;;;4.60;2.60;;;12.70;6.60;;;;;;5052160;28;20512;-56
2022/03/30 11:40:41;;;;;;;5.47;2.58;;;12.90;1.00;;;;;;5050102;28;20437;-54
2022/03/30 11:43:10;;;;;;;6.63;2.80;;;12.80;1.00;;;;;;5046263;28;20456;-56
2022/03/30 11:45:37;;;;;;;5.43;2.60;;;12.90;1.00;;;;;;5051810;28;20452;-56
2022/03/30 11:48:10;;;;;;;9.18;4.63;;;13.10;1.00;;;;;;5051925;28;20436;-55
2022/03/30 11:50:39;;;;;;;5.28;2.65;;;13.30;1.00;;;;;;5050419;28;20471;-53
2022/03/30 11:53:08;;;;;;;9.10;4.13;;;13.20;1.00;;;;;;5050963;28;20487;-55
2022/03/30 11:55:37;;;;;;;7.60;4.10;;;13.10;1.00;;;;;;5047572;28;20432;-56
2022/03/30 11:58:05;;;;;;;4.28;3.05;;;13.00;1.00;;;;;;5032066;28;20427;-55
2022/03/30 12:00:33;;;;;;;4.82;3.35;;;13.20;1.00;;;;;;5039762;28;20506;-54
2022/03/30 12:03:02;;;;;;;6.07;3.55;;;13.20;1.00;;;;;;5050553;28;20527;-51
2022/03/30 12:05:30;;;;;;;5.93;3.60;;;13.30;1.00;;;;;;5048580;28;20725;-55
2022/03/30 12:08:00;;;;;;;5.85;3.83;;;13.30;1.00;;;;;;5032807;28;20411;-54
2022/03/30 12:10:31;;;;;;;6.33;4.73;;;13.20;1.00;;;;;;5032167;28;20431;-52
2022/03/30 12:12:58;;;;;;;6.45;4.88;;;12.80;1.00;;;;;;5032741;28;20437;-52
2022/03/30 12:15:26;;;;;;;7.17;4.90;;;12.70;1.00;;;;;;5043261;28;20860;-52
2022/03/30 12:17:55;;;;;;;9.30;4.78;;;12.80;1.00;;;;;;5050343;28;20425;-50
2022/03/30 12:20:25;;;;;;;7.68;5.30;;;12.70;1.00;;;;;;5043673;28;20451;-50
2022/03/30 12:22:58;;;;;;;7.45;4.70;;;12.80;1.00;;;;;;5044542;28;20457;-53
2022/03/30 12:25:28;;;;;;;9.15;5.15;;;12.80;1.00;;;;;;5043762;28;20445;-55
2022/03/30 12:27:55;;;;;;;8.63;4.63;;;12.80;1.00;;;;;;5049361;28;20718;-52
2022/03/30 12:30:22;;;;;;;11.60;5.97;;;12.90;1.00;;;;;;5047720;28;20512;-55
2022/03/30 12:32:50;;;;;;;9.55;4.68;;;13.10;1.00;;;;;;5042570;28;20487;-55
2022/03/30 12:35:18;;;;;;;6.30;4.20;;;13.00;1.00;;;;;;5049384;28;20792;-54
2022/03/30 12:37:48;;;;;;;7.10;4.03;;;12.90;1.00;;;;;;5051551;28;20511;-56
2022/03/30 12:40:20;;;;;;;3.17;1.77;;;12.90;1.00;;;;;;5032541;28;20734;-55
2022/03/30 12:42:48;;;;;;;2.90;1.80;;;12.60;1.00;;;;;;5032042;28;20423;-55
2022/03/30 12:45:17;;;;;;;2.42;1.20;;;12.40;1.00;;;;;;5031127;28;20549;-56
2022/03/30 12:47:50;;;;;;;1.90;1.25;;;11.90;31.80;;;;;;5032585;28;20974;-53
2022/03/30 12:50:23;;;;;;;1.87;1.27;;;11.90;32.30;;;;;;5031817;28;20435;-55
2022/03/30 12:52:53;;;;;;;2.40;1.33;;;11.90;16.70;;;;;;5030069;28;20488;-54
2022/03/30 12:55:27;;;;;;;3.35;1.60;;;11.90;34.80;;;;;;5030054;28;20439;-50
2022/03/30 12:57:59;;;;;;;2.13;1.20;;;11.80;52.40;;;;;;5032154;28;20449;-51
2022/03/30 13:00:31;;;;;;;2.40;1.30;;;11.70;61.60;;;;;;5032792;28;20437;-52
2022/03/30 13:03:10;;;;;;;3.00;1.60;;;11.20;90.10;;;;;;5032987;28;20429;-54
2022/03/30 13:05:39;;;;;;;2.50;1.30;;;10.90;99.90;;;;;;5031153;28;20429;-53
2022/03/30 13:08:12;;;;;;;1.90;1.50;;;10.90;99.90;;;;;;5032642;28;20529;-52
2022/03/30 13:10:55;;;;;;;2.05;1.30;;;10.80;99.90;;;;;;5029684;28;20493;-53
2022/03/30 13:13:24;;;;;;;2.25;1.17;;;10.80;99.90;;;;;;5032222;28;20434;-49